createdAt,value
2022-10-17T03:45:35.345Z,10.50
2022-10-17T03:48:02.039Z,10.60
2022-10-17T03:50:28.715Z,10.60
2022-10-17T03:52:55.380Z,10.60
2022-10-17T03:55:22.084Z,10.60
2022-10-17T03:57:48.755Z,10.50
2022-10-17T04:00:15.687Z,10.50
2022-10-17T04:02:42.395Z,10.50
2022-10-17T04:05:09.259Z,10.50
2022-10-17T04:07:37.581Z,10.40
2022-10-17T04:10:05.450Z,10.40
2022-10-17T04:12:32.459Z,10.30
2022-10-17T04:14:59.191Z,10.30
2022-10-17T04:17:25.936Z,10.30
2022-10-17T04:19:52.623Z,10.30
2022-10-17T04:22:19.309Z,10.30
2022-10-17T04:24:46.268Z,10.30
2022-10-17T04:27:12.949Z,10.30
2022-10-17T04:29:39.752Z,10.30
2022-10-17T04:32:06.716Z,10.30
2022-10-17T04:34:33.441Z,10.30
2022-10-17T04:37:00.098Z,10.30
2022-10-17T04:39:26.958Z,10.30
2022-10-17T04:41:53.773Z,10.20
2022-10-17T04:44:20.838Z,10.20
2022-10-17T04:46:47.773Z,10.20
2022-10-17T04:49:14.469Z,10.20
2022-10-17T04:51:41.277Z,10.20
2022-10-17T04:54:07.992Z,10.20
2022-10-17T04:56:34.679Z,10.20
2022-10-17T04:59:01.389Z,10.20
2022-10-17T05:01:28.448Z,10.20
2022-10-17T05:03:56.007Z,10.20
2022-10-17T05:06:24.764Z,10.20
2022-10-17T05:08:51.960Z,10.20
2022-10-17T05:11:21.766Z,10.20
2022-10-17T05:14:15.408Z,10.20
2022-10-17T05:16:42.179Z,10.20
2022-10-17T05:19:08.907Z,10.20
2022-10-17T05:21:37.475Z,10.20
2022-10-17T05:24:08.615Z,10.10
2022-10-17T05:26:35.463Z,10.10
2022-10-17T05:29:03.150Z,10.10
2022-10-17T05:31:30.787Z,10.00
2022-10-17T05:34:02.056Z,9.90
2022-10-17T05:36:28.911Z,10.00
2022-10-17T05:38:55.583Z,10.00
2022-10-17T05:41:22.293Z,10.00
2022-10-17T05:43:50.263Z,10.00
2022-10-17T05:46:17.511Z,10.00
2022-10-17T05:48:44.359Z,10.00
2022-10-17T05:51:11.265Z,10.10
2022-10-17T05:53:40.424Z,10.00
2022-10-17T05:56:10.355Z,10.00
2022-10-17T05:58:49.752Z,9.90
2022-10-17T06:01:17.946Z,9.90
2022-10-17T06:03:44.633Z,9.90
2022-10-17T06:06:13.389Z,9.90
2022-10-17T06:08:40.416Z,10.00
2022-10-17T06:11:10.126Z,10.00
2022-10-17T06:13:38.631Z,10.10
2022-10-17T06:16:05.948Z,10.10
2022-10-17T06:18:33.222Z,10.20
2022-10-17T06:21:10.858Z,10.20
2022-10-17T06:23:38.151Z,10.30
2022-10-17T06:26:06.610Z,10.40
2022-10-17T06:28:33.722Z,10.40
2022-10-17T06:31:05.058Z,10.40
2022-10-17T06:33:32.099Z,10.50
2022-10-17T06:35:58.840Z,10.60
2022-10-17T06:38:25.768Z,10.60
2022-10-17T06:40:54.031Z,10.70
2022-10-17T06:43:25.573Z,10.80
2022-10-17T06:45:54.697Z,10.90
2022-10-17T06:48:21.433Z,10.90
2022-10-17T06:50:48.109Z,11.00
2022-10-17T06:53:14.813Z,11.10
2022-10-17T06:55:42.851Z,11.30
2022-10-17T06:58:09.616Z,11.30
2022-10-17T07:00:36.382Z,11.40
2022-10-17T07:03:03.188Z,11.50
2022-10-17T07:05:30.241Z,11.70
2022-10-17T07:07:56.904Z,11.80
2022-10-17T07:10:23.594Z,12.00
2022-10-17T07:12:50.273Z,12.10
2022-10-17T07:15:17.030Z,12.30
2022-10-17T07:17:43.680Z,12.50
2022-10-17T07:20:10.887Z,12.70
2022-10-17T07:22:37.579Z,13.00
2022-10-17T07:25:04.715Z,13.30
2022-10-17T07:27:31.725Z,13.60
2022-10-17T07:29:58.936Z,14.00
2022-10-17T07:32:25.736Z,14.30
2022-10-17T07:34:52.480Z,14.60
2022-10-17T07:37:19.187Z,14.90
2022-10-17T07:39:45.900Z,15.30
2022-10-17T07:42:14.486Z,15.60
2022-10-17T07:44:41.184Z,16.00
2022-10-17T07:47:07.857Z,16.30
2022-10-17T07:49:34.588Z,16.50
2022-10-17T07:52:01.253Z,16.80
2022-10-17T07:54:28.025Z,17.10
2022-10-17T07:56:54.680Z,17.40
2022-10-17T07:59:21.415Z,17.60
2022-10-17T08:01:48.181Z,17.90
2022-10-17T08:04:16.791Z,18.50
2022-10-17T08:06:43.701Z,19.10
2022-10-17T08:09:10.497Z,19.60
2022-10-17T08:11:37.255Z,20.00
2022-10-17T08:14:04.253Z,20.80
2022-10-17T08:16:31.072Z,21.60
2022-10-17T08:18:57.806Z,22.00
2022-10-17T08:21:24.659Z,22.50
2022-10-17T08:23:51.360Z,23.10
2022-10-17T08:26:20.017Z,23.50
2022-10-17T08:28:47.026Z,24.20
2022-10-17T08:31:20.089Z,24.90
2022-10-17T08:33:48.587Z,25.40
2022-10-17T08:36:17.765Z,26.00
2022-10-17T08:38:47.999Z,26.50
2022-10-17T08:41:30.187Z,27.00
2022-10-17T08:44:09.363Z,27.20
2022-10-17T08:46:40.227Z,27.50
2022-10-17T08:49:13.774Z,28.00
2022-10-17T08:51:49.252Z,28.60
2022-10-17T08:54:25.990Z,28.80
2022-10-17T08:56:55.281Z,29.00
2022-10-17T08:59:27.794Z,29.60
2022-10-17T09:02:03.616Z,30.20
2022-10-17T09:04:33.210Z,30.70
2022-10-17T09:07:37.193Z,30.80
2022-10-17T09:10:27.649Z,30.30
2022-10-17T09:13:19.320Z,30.80
2022-10-17T09:15:55.228Z,31.70
2022-10-17T09:18:31.428Z,32.20
2022-10-17T09:21:13.569Z,32.10
2022-10-17T09:24:08.966Z,32.40
2022-10-17T09:26:38.987Z,32.70
2022-10-17T09:29:17.299Z,33.00
2022-10-17T09:32:03.501Z,33.70
2022-10-17T09:34:32.230Z,34.30
2022-10-17T09:37:00.906Z,34.20
2022-10-17T09:39:32.047Z,33.60
2022-10-17T09:42:02.956Z,33.30
2022-10-17T09:44:40.896Z,33.40
2022-10-17T09:47:31.576Z,33.60
2022-10-17T09:49:58.332Z,34.50
2022-10-17T09:52:33.965Z,35.40
2022-10-17T09:55:03.327Z,35.30
2022-10-17T09:57:53.736Z,35.20
2022-10-17T10:00:27.931Z,35.20
2022-10-17T10:03:25.385Z,34.60
2022-10-17T10:06:14.033Z,35.00
2022-10-17T10:08:56.009Z,35.20
2022-10-17T10:11:44.683Z,35.30
2022-10-17T10:14:18.175Z,35.00
2022-10-17T10:16:46.616Z,34.90
2022-10-17T10:19:32.993Z,34.50
2022-10-17T10:22:03.477Z,34.70
2022-10-17T10:24:31.386Z,34.60
2022-10-17T10:27:01.161Z,34.80
2022-10-17T10:29:34.480Z,34.80
2022-10-17T10:32:23.115Z,34.80
2022-10-17T10:34:55.720Z,35.00
2022-10-17T10:37:29.172Z,34.90
2022-10-17T10:40:02.562Z,34.90
2022-10-17T10:42:39.770Z,35.60
2022-10-17T10:45:35.972Z,35.50
2022-10-17T10:48:27.801Z,35.40
2022-10-17T10:50:59.104Z,34.70
2022-10-17T10:53:55.361Z,34.10
2022-10-17T10:56:41.548Z,33.50
2022-10-17T10:59:21.091Z,33.40
2022-10-17T11:01:54.574Z,33.50
2022-10-17T11:04:43.392Z,31.90
2022-10-17T11:07:32.708Z,31.20
2022-10-17T11:10:34.693Z,31.30
2022-10-17T11:13:13.549Z,30.70
2022-10-17T11:15:57.912Z,28.90
2022-10-17T11:18:26.930Z,27.50
2022-10-17T11:21:00.567Z,26.90
2022-10-17T11:23:41.439Z,26.40
2022-10-17T11:26:14.583Z,27.00
2022-10-17T11:28:41.447Z,27.50
2022-10-17T11:31:13.262Z,27.70
2022-10-17T11:33:55.974Z,27.90
2022-10-17T11:36:28.418Z,27.90
2022-10-17T11:38:57.999Z,28.10
2022-10-17T11:41:31.422Z,28.80
2022-10-17T11:44:20.337Z,28.60
2022-10-17T11:46:52.509Z,28.40
2022-10-17T11:49:24.237Z,28.30
2022-10-17T11:52:01.129Z,28.40
2022-10-17T11:54:41.840Z,28.90
2022-10-17T11:57:23.367Z,28.50
2022-10-17T12:00:03.277Z,28.90
2022-10-17T12:02:40.299Z,28.60
2022-10-17T12:05:26.695Z,28.60
2022-10-17T12:08:31.263Z,28.40
2022-10-17T12:11:28.498Z,28.10
2022-10-17T12:13:56.845Z,28.00
2022-10-17T12:16:23.642Z,28.00
2022-10-17T12:19:26.527Z,27.60
2022-10-17T12:22:16.475Z,27.70
2022-10-17T12:24:45.417Z,27.60
2022-10-17T12:27:46.271Z,27.40
2022-10-17T12:30:13.454Z,27.30
2022-10-17T12:33:05.633Z,27.30
2022-10-17T12:35:35.957Z,27.10
2022-10-17T12:38:04.165Z,26.50
2022-10-17T12:40:37.041Z,26.30
2022-10-17T12:43:29.382Z,26.30
2022-10-17T12:45:58.405Z,26.70
2022-10-17T12:48:33.991Z,26.80
2022-10-17T12:54:07.003Z,27.20
2022-10-17T12:56:45.887Z,27.00
2022-10-17T12:59:25.779Z,27.00
2022-10-17T13:02:03.348Z,26.80
2022-10-17T13:04:31.272Z,26.70
2022-10-17T13:07:00.998Z,26.90
2022-10-17T13:09:35.324Z,27.20
2022-10-17T13:12:06.238Z,27.20
2022-10-17T13:14:34.681Z,27.10
2022-10-17T13:17:06.728Z,26.90
2022-10-17T13:19:43.842Z,26.90
2022-10-17T13:22:25.306Z,26.80
2022-10-17T13:24:53.961Z,27.00
2022-10-17T13:27:33.570Z,27.10
2022-10-17T13:30:03.290Z,27.40
2022-10-17T13:32:38.673Z,27.50
2022-10-17T13:35:07.303Z,27.70
2022-10-17T13:37:35.050Z,27.80
2022-10-17T13:40:17.502Z,28.00
2022-10-17T13:42:50.707Z,28.20
2022-10-17T13:45:27.207Z,28.60
2022-10-17T13:47:54.342Z,28.70
2022-10-17T13:50:44.276Z,28.90
2022-10-17T13:53:32.534Z,28.80
2022-10-17T13:56:26.465Z,28.60
2022-10-17T13:58:52.699Z,28.50
2022-10-17T14:01:21.542Z,28.70
2022-10-17T14:03:51.793Z,28.70
2022-10-17T14:06:29.470Z,28.60
2022-10-17T14:09:06.150Z,28.40
2022-10-17T14:11:44.146Z,28.30
2022-10-17T14:14:20.650Z,28.70
2022-10-17T14:16:47.574Z,28.30
2022-10-17T14:19:29.330Z,28.10
2022-10-17T14:22:14.626Z,27.80
2022-10-17T14:24:42.385Z,27.80
2022-10-17T14:27:55.709Z,28.00
2022-10-17T14:30:55.801Z,28.10
2022-10-17T14:33:24.098Z,28.50
2022-10-17T14:35:55.330Z,28.70
2022-10-17T14:38:22.871Z,28.40
2022-10-17T14:40:51.810Z,28.30
2022-10-17T14:43:25.138Z,28.30
2022-10-17T14:45:52.375Z,28.30
2022-10-17T14:48:22.305Z,28.10
2022-10-17T14:51:09.243Z,27.70
2022-10-17T14:53:36.949Z,27.40
2022-10-17T14:56:25.949Z,27.00
2022-10-17T14:58:52.850Z,26.80
2022-10-17T15:01:19.638Z,26.50
2022-10-17T15:03:46.326Z,26.30
2022-10-17T15:06:27.506Z,26.10
2022-10-17T15:08:54.297Z,25.90
2022-10-17T15:11:21.205Z,25.60
2022-10-17T15:13:47.978Z,25.30
2022-10-17T15:16:23.759Z,25.20
2022-10-17T15:18:50.845Z,24.90
2022-10-17T15:21:33.708Z,24.70
2022-10-17T15:24:04.826Z,24.70
2022-10-17T15:26:34.137Z,24.70
2022-10-17T15:29:01.381Z,24.90
2022-10-17T15:31:29.803Z,24.90
2022-10-17T15:33:56.786Z,24.90
2022-10-17T15:36:24.974Z,24.90
2022-10-17T15:38:55.314Z,24.80
2022-10-17T15:41:23.218Z,24.50
2022-10-17T15:43:50.205Z,24.10
2022-10-17T15:46:34.006Z,23.70
2022-10-17T15:49:07.539Z,23.30
2022-10-17T15:51:34.570Z,22.90
2022-10-17T15:54:01.783Z,22.50
2022-10-17T15:56:37.310Z,22.30
2022-10-17T15:59:06.528Z,22.10
2022-10-17T16:01:34.103Z,21.90
2022-10-17T16:04:00.898Z,21.50
2022-10-17T16:06:27.628Z,21.30
2022-10-17T16:08:54.294Z,21.10
2022-10-17T16:11:32.558Z,20.90
2022-10-17T16:14:04.558Z,20.70
2022-10-17T16:16:31.308Z,20.50
2022-10-17T16:18:58.425Z,20.40
2022-10-17T16:21:27.878Z,20.30
2022-10-17T16:23:55.438Z,20.10
2022-10-17T16:26:22.152Z,20.00
2022-10-17T16:28:48.885Z,19.80
2022-10-17T16:31:20.612Z,19.80
2022-10-17T16:33:48.597Z,19.60
2022-10-17T16:36:15.341Z,19.40
2022-10-17T16:38:42.329Z,19.30
2022-10-17T16:41:21.339Z,19.30
2022-10-17T16:43:52.686Z,19.30
2022-10-17T16:46:19.900Z,19.20
2022-10-17T16:48:46.958Z,19.10
2022-10-17T16:51:15.201Z,19.00
2022-10-17T16:53:44.851Z,18.80
2022-10-17T16:56:14.267Z,18.80
2022-10-17T16:58:42.210Z,18.70
2022-10-17T17:01:13.123Z,18.60
2022-10-17T17:03:41.855Z,18.50
2022-10-17T17:06:12.263Z,18.30
2022-10-17T17:08:39.339Z,18.20
2022-10-17T17:11:11.078Z,18.10
2022-10-17T17:13:38.010Z,18.20
2022-10-17T17:16:13.520Z,18.20
2022-10-17T17:18:40.930Z,18.20
2022-10-17T17:21:08.834Z,18.30
2022-10-17T17:23:38.492Z,18.10
2022-10-17T17:26:16.630Z,18.10
2022-10-17T17:28:43.868Z,18.10
2022-10-17T17:31:16.261Z,18.00
2022-10-17T17:33:43.841Z,17.90
2022-10-17T17:36:14.149Z,17.80
2022-10-17T17:38:41.350Z,17.80
2022-10-17T17:41:08.031Z,17.70
2022-10-17T17:43:35.847Z,17.50
2022-10-17T17:46:02.526Z,17.50
2022-10-17T17:48:29.419Z,17.50
2022-10-17T17:50:56.134Z,17.50
2022-10-17T17:53:23.114Z,17.50
2022-10-17T17:56:05.442Z,17.50
2022-10-17T17:58:33.026Z,17.40
2022-10-17T18:01:00.258Z,17.30
2022-10-17T18:03:27.743Z,17.30
2022-10-17T18:05:54.667Z,17.20
2022-10-17T18:08:21.346Z,17.10
2022-10-17T18:10:54.482Z,17.00
2022-10-17T18:13:21.117Z,17.00
2022-10-17T18:15:51.595Z,16.90
2022-10-17T18:18:18.994Z,16.80
2022-10-17T18:20:45.712Z,16.70
2022-10-17T18:23:12.448Z,16.50
2022-10-17T18:25:39.334Z,16.50
2022-10-17T18:28:05.994Z,16.50
2022-10-17T18:30:34.406Z,16.50
2022-10-17T18:33:01.293Z,16.50
2022-10-17T18:35:27.966Z,16.40
2022-10-17T18:37:56.912Z,16.40
2022-10-17T18:40:23.629Z,16.30
2022-10-17T18:42:50.277Z,16.30
2022-10-17T18:45:17.423Z,16.30
2022-10-17T18:47:47.209Z,16.30
2022-10-17T18:50:14.885Z,16.40
2022-10-17T18:52:41.620Z,16.40
2022-10-17T18:55:08.777Z,16.30
2022-10-17T18:57:35.546Z,16.20
2022-10-17T19:00:02.412Z,16.10
2022-10-17T19:02:30.003Z,16.10
2022-10-17T19:04:58.812Z,16.10
2022-10-17T19:07:25.494Z,16.10
2022-10-17T19:09:52.186Z,16.10
2022-10-17T19:12:18.868Z,16.00
2022-10-17T19:14:45.505Z,15.90
2022-10-17T19:17:12.159Z,15.90
2022-10-17T19:19:38.898Z,15.70
2022-10-17T19:22:05.676Z,15.70
2022-10-17T19:24:32.368Z,15.60
2022-10-17T19:27:02.662Z,15.60
2022-10-17T19:29:33.086Z,15.60
2022-10-17T19:32:00.762Z,15.60
2022-10-17T19:34:27.798Z,15.50
2022-10-17T19:36:55.699Z,15.50
2022-10-17T19:39:23.814Z,15.50
2022-10-17T19:41:50.478Z,15.40
2022-10-17T19:44:17.378Z,15.30
2022-10-17T19:46:46.570Z,15.30
2022-10-17T19:49:14.065Z,15.30
2022-10-17T19:51:41.001Z,15.20
2022-10-17T19:54:07.692Z,15.20
2022-10-17T19:56:38.815Z,15.10
2022-10-17T19:59:07.069Z,15.10
2022-10-17T20:01:35.948Z,15.10
2022-10-17T20:04:02.674Z,15.10
2022-10-17T20:06:29.385Z,15.10
2022-10-17T20:08:56.095Z,15.10
2022-10-17T20:11:25.120Z,15.00
2022-10-17T20:13:52.391Z,15.00
2022-10-17T20:16:23.168Z,14.90
2022-10-17T20:18:51.415Z,14.90
2022-10-17T20:21:22.169Z,14.90
2022-10-17T20:23:48.978Z,14.90
2022-10-17T20:26:26.358Z,14.80
2022-10-17T20:29:02.428Z,14.80
2022-10-17T20:31:29.614Z,14.80
2022-10-17T20:33:57.926Z,14.80
2022-10-17T20:36:25.357Z,14.80
2022-10-17T20:38:56.879Z,14.80
2022-10-17T20:41:24.108Z,14.80
2022-10-17T20:43:51.938Z,14.70
2022-10-17T20:46:35.102Z,14.70
2022-10-17T20:49:02.384Z,14.70
2022-10-17T20:51:29.060Z,14.60
2022-10-17T20:56:26.409Z,14.60
2022-10-17T20:58:55.206Z,14.60
2022-10-17T21:01:22.878Z,14.60
2022-10-17T21:03:50.121Z,14.60
2022-10-17T21:06:17.814Z,14.60
2022-10-17T21:08:46.061Z,14.60
2022-10-17T21:11:18.138Z,14.50
2022-10-17T21:13:46.399Z,14.40
2022-10-17T21:16:16.130Z,14.40
2022-10-17T21:18:43.586Z,14.40
2022-10-17T21:21:20.421Z,14.40
2022-10-17T21:23:50.196Z,14.40
2022-10-17T21:26:18.023Z,14.40
2022-10-17T21:28:46.502Z,14.30
2022-10-17T21:31:24.318Z,14.30
2022-10-17T21:33:56.351Z,14.30
2022-10-17T21:36:24.293Z,14.30
2022-10-17T21:38:53.420Z,14.20
2022-10-17T21:41:22.481Z,14.20
2022-10-17T21:43:56.340Z,14.10
2022-10-17T21:46:23.851Z,14.00
2022-10-17T21:48:51.825Z,14.00
2022-10-17T21:51:23.504Z,13.90
2022-10-17T21:53:51.971Z,13.90
2022-10-17T21:56:21.366Z,13.90
2022-10-17T21:58:49.197Z,13.90
2022-10-17T22:01:22.390Z,13.80
2022-10-17T22:03:51.709Z,13.80
2022-10-17T22:06:40.919Z,13.90
2022-10-17T22:09:17.134Z,13.90
2022-10-17T22:11:49.075Z,13.80
2022-10-17T22:14:18.484Z,13.80
2022-10-17T22:16:46.499Z,13.80
2022-10-17T22:19:15.756Z,13.80
2022-10-17T22:21:42.575Z,13.70
2022-10-17T22:24:12.718Z,13.50
2022-10-17T22:26:40.155Z,13.50
2022-10-17T22:29:07.996Z,13.50
2022-10-17T22:31:35.538Z,13.50
2022-10-17T22:34:03.570Z,13.50
2022-10-17T22:36:31.917Z,13.50
2022-10-17T22:38:58.566Z,13.50
2022-10-17T22:41:25.241Z,13.50
2022-10-17T22:43:51.975Z,13.40
2022-10-17T22:46:18.703Z,13.50
2022-10-17T22:48:45.811Z,13.40
2022-10-17T22:51:12.637Z,13.30
2022-10-17T22:53:39.766Z,13.30
2022-10-17T22:56:12.966Z,13.30
2022-10-17T22:58:39.786Z,13.30
